Time;durP1;ratioP1;P1;durP2;ratioP2;P2;SDS_P1;SDS_P2;PMS_P1;PMS_P2;Temp;Humidity;BMP_temperature;BMP_pressure;BME280_temperature;BME280_humidity;BME280_pressure;Samples;Min_cycle;Max_cycle;Signal;HPM_P1;HPM_P2
2022/09/28 00:03:13;;;;;;;2.20;2.10;;;;;;;9.41;86.91;99570.25;6288636;28;20223;-74
2022/09/28 00:06:34;;;;;;;1.73;1.60;;;;;;;9.49;86.23;99570.28;6268373;28;20235;-73
2022/09/28 00:09:55;;;;;;;1.83;1.70;;;;;;;9.48;86.63;99575.81;6284288;28;20239;-74
2022/09/28 00:13:17;;;;;;;2.27;1.67;;;;;;;9.37;86.46;99574.25;6286082;28;20271;-73
2022/09/28 00:16:41;;;;;;;2.40;2.27;;;;;;;9.32;86.76;99573.91;6280078;28;20227;-74
2022/09/28 00:20:04;;;;;;;3.37;2.03;;;;;;;9.39;87.35;99569.56;6282913;28;20224;-73
2022/09/28 00:23:25;;;;;;;1.67;1.57;;;;;;;9.53;86.71;99565.44;6280495;28;20235;-74
2022/09/28 00:26:48;;;;;;;1.87;1.73;;;;;;;9.51;86.61;99570.13;6274188;28;20216;-74
2022/09/28 00:30:15;;;;;;;1.90;1.70;;;;;;;9.55;86.15;99566.94;6265092;28;20499;-74
2022/09/28 00:33:36;;;;;;;2.90;1.73;;;;;;;9.38;86.90;99565.22;6278389;28;20810;-74
2022/09/28 00:36:58;;;;;;;2.77;2.00;;;;;;;9.33;87.43;99561.28;6283397;28;20239;-74
2022/09/28 00:40:19;;;;;;;2.00;1.90;;;;;;;9.21;87.79;99557.19;6279196;28;20227;-74
2022/09/28 00:43:41;;;;;;;1.97;1.63;;;;;;;9.21;87.85;99555.38;6275612;28;20604;-73
2022/09/28 00:47:13;;;;;;;1.53;1.43;;;;;;;9.26;87.67;99544.13;6285742;28;20223;-73
2022/09/28 00:50:38;;;;;;;4.03;2.27;;;;;;;9.17;87.53;99550.47;6281709;28;20347;-74
2022/09/28 00:54:02;;;;;;;2.73;1.87;;;;;;;9.13;87.91;99549.09;6279323;28;20223;-75
2022/09/28 00:57:23;;;;;;;4.97;2.07;;;;;;;9.07;88.06;99537.16;6282532;28;20223;-73
2022/09/28 01:00:45;;;;;;;1.80;1.63;;;;;;;9.03;88.32;99540.31;6276447;28;20958;-73
2022/09/28 01:04:07;;;;;;;3.10;2.67;;;;;;;9.01;88.29;99547.69;6281502;28;20224;-73
2022/09/28 01:07:28;;;;;;;2.63;1.90;;;;;;;9.02;88.88;99535.91;6281721;28;20310;-74
2022/09/28 01:10:49;;;;;;;2.37;2.17;;;;;;;8.95;88.61;99537.56;6285820;28;20524;-74
2022/09/28 01:14:15;;;;;;;2.33;1.93;;;;;;;8.93;89.05;99531.50;6278650;28;20230;-74
2022/09/28 01:17:50;;;;;;;3.03;1.83;;;;;;;9.06;88.18;99537.28;6270676;28;20231;-76
2022/09/28 01:21:18;;;;;;;2.30;1.90;;;;;;;8.93;88.54;99532.34;6290946;28;20234;-74
2022/09/28 01:24:44;;;;;;;2.50;2.30;;;;;;;8.88;88.79;99536.50;6291346;28;20231;-75
2022/09/28 01:28:11;;;;;;;2.50;1.73;;;;;;;8.85;89.12;99540.34;6283669;28;20347;-74
2022/09/28 01:31:36;;;;;;;3.40;2.43;;;;;;;8.87;88.84;99532.97;6295769;28;20231;-73
2022/09/28 01:35:02;;;;;;;3.07;2.47;;;;;;;8.70;89.72;99536.53;6293124;28;20231;-73
2022/09/28 01:38:29;;;;;;;2.33;2.13;;;;;;;8.63;89.75;99530.97;6281151;28;20227;-74
2022/09/28 01:41:54;;;;;;;2.80;2.00;;;;;;;8.61;90.66;99533.00;6280592;28;20227;-74
2022/09/28 01:45:22;;;;;;;2.33;2.13;;;;;;;8.50;90.44;99532.38;6281355;28;20231;-74
2022/09/28 01:48:50;;;;;;;2.07;1.97;;;;;;;8.48;90.70;99529.00;6297511;28;20314;-74
2022/09/28 01:52:17;;;;;;;6.47;2.37;;;;;;;8.46;90.90;99522.94;6277811;28;20231;-75
2022/09/28 01:55:43;;;;;;;1.83;1.73;;;;;;;8.43;90.63;99518.72;6270866;28;20235;-74
2022/09/28 01:59:10;;;;;;;2.23;2.03;;;;;;;8.47;90.63;99516.59;6272262;28;21505;-74
2022/09/28 02:02:37;;;;;;;2.03;1.83;;;;;;;8.45;90.00;99526.66;6272413;28;20224;-72
2022/09/28 02:06:03;;;;;;;2.27;2.07;;;;;;;8.49;90.24;99519.97;6271703;28;20302;-73
2022/09/28 02:09:31;;;;;;;2.53;2.33;;;;;;;8.57;89.79;99514.66;6272815;28;20227;-73
2022/09/28 02:12:57;;;;;;;2.77;2.37;;;;;;;8.57;89.15;99511.97;6271485;28;20226;-73
2022/09/28 02:16:26;;;;;;;5.93;2.30;;;;;;;8.56;90.24;99515.63;6282675;28;20227;-74
2022/09/28 02:19:48;;;;;;;2.80;2.60;;;;;;;8.53;89.26;99510.59;6271170;28;20743;-74
2022/09/28 02:23:12;;;;;;;2.97;1.93;;;;;;;8.51;90.21;99504.53;6288883;28;20236;-74
2022/09/28 02:26:39;;;;;;;4.60;3.17;;;;;;;8.59;89.42;99512.66;6292219;28;20512;-74
2022/09/28 02:30:00;;;;;;;2.10;2.00;;;;;;;8.68;89.58;99504.47;6291082;28;20230;-74
2022/09/28 02:33:26;;;;;;;4.07;2.60;;;;;;;8.72;89.50;99510.38;6279721;28;20235;-73
2022/09/28 02:36:49;;;;;;;3.50;2.57;;;;;;;8.69;89.01;99502.63;6292398;28;20238;-73
2022/09/28 02:40:14;;;;;;;2.17;1.93;;;;;;;8.66;89.63;99501.09;6277445;28;20227;-73
2022/09/28 02:43:49;;;;;;;4.57;2.27;;;;;;;8.63;89.19;99496.06;6278174;28;20227;-74
2022/09/28 02:47:24;;;;;;;2.50;2.30;;;;;;;8.56;89.94;99496.84;6294476;28;20227;-73
2022/09/28 02:50:56;;;;;;;3.30;2.70;;;;;;;8.55;89.53;99490.59;6287394;28;20231;-74
2022/09/28 02:54:30;;;;;;;2.60;2.00;;;;;;;8.59;89.29;99497.38;6278258;28;20219;-74
2022/09/28 02:58:05;;;;;;;3.30;3.03;;;;;;;8.38;90.17;99494.19;6274504;28;20613;-74
2022/09/28 03:01:32;;;;;;;2.67;2.33;;;;;;;8.32;90.49;99499.34;6291888;28;20239;-73
2022/09/28 03:05:06;;;;;;;3.50;3.07;;;;;;;8.40;91.09;99504.78;6280656;28;20713;-74
2022/09/28 03:08:32;;;;;;;4.33;2.97;;;;;;;8.45;90.67;99500.63;6299153;28;20314;-75
2022/09/28 03:11:59;;;;;;;2.93;2.70;;;;;;;8.52;90.62;99495.47;6297076;28;20227;-74
2022/09/28 03:15:22;;;;;;;3.23;2.43;;;;;;;8.52;90.41;99498.16;6278168;28;20239;-74
2022/09/28 03:18:44;;;;;;;4.10;2.90;;;;;;;8.57;90.39;99502.03;6279042;28;20231;-74
2022/09/28 03:22:05;;;;;;;3.87;3.03;;;;;;;8.51;90.02;99499.16;6288909;28;20239;-74
2022/09/28 03:25:26;;;;;;;3.07;2.67;;;;;;;8.57;90.19;99495.84;6291395;28;20231;-73
2022/09/28 03:28:48;;;;;;;4.97;2.97;;;;;;;8.55;90.17;99493.28;6292090;28;20273;-74
2022/09/28 03:32:18;;;;;;;4.10;3.63;;;;;;;8.46;90.41;99490.72;6282809;28;20314;-74
2022/09/28 03:35:39;;;;;;;4.00;3.27;;;;;;;8.52;90.24;99496.31;6285650;28;20596;-74
2022/09/28 03:39:00;;;;;;;3.53;3.23;;;;;;;8.44;89.54;99496.25;6274594;28;20276;-74
2022/09/28 03:42:21;;;;;;;3.87;3.53;;;;;;;8.48;89.63;99494.09;6292520;28;20231;-74
2022/09/28 03:45:51;;;;;;;2.80;2.60;;;;;;;8.40;90.20;99486.84;6293758;28;20506;-73
2022/09/28 03:49:12;;;;;;;3.07;2.67;;;;;;;8.34;90.40;99484.78;6276257;28;20692;-74
2022/09/28 03:52:33;;;;;;;4.73;3.03;;;;;;;8.40;90.11;99485.97;6281222;28;20239;-73
2022/09/28 03:55:54;;;;;;;4.03;3.00;;;;;;;8.47;90.37;99484.38;6284366;28;20613;-73
2022/09/28 03:59:15;;;;;;;4.00;3.60;;;;;;;8.23;90.33;99490.34;6280335;28;20279;-74
2022/09/28 04:02:37;;;;;;;7.43;6.63;;;;;;;8.18;90.40;99492.66;6296009;28;20310;-74
2022/09/28 04:05:59;;;;;;;8.87;7.80;;;;;;;8.38;90.71;99490.66;6285715;28;20309;-74
2022/09/28 04:09:20;;;;;;;10.13;7.73;;;;;;;8.35;90.44;99481.06;6278055;28;20227;-73
2022/09/28 04:12:40;;;;;;;12.63;7.30;;;;;;;8.10;90.72;99484.53;6279287;28;20552;-74
2022/09/28 04:16:02;;;;;;;10.67;7.33;;;;;;;8.13;91.40;99491.44;6287317;28;20247;-73
2022/09/28 04:19:28;;;;;;;12.33;8.37;;;;;;;8.35;91.29;99489.13;6282834;28;20546;-74
2022/09/28 04:23:13;;;;;;;10.80;7.50;;;;;;;8.43;90.17;99491.03;6281321;28;20273;-73
2022/09/28 04:26:35;;;;;;;15.07;9.50;;;;;;;8.02;90.77;99497.88;6253674;28;20651;-74
2022/09/28 04:29:55;;;;;;;18.00;10.13;;;;;;;8.04;91.64;99494.06;6302096;28;20672;-74
2022/09/28 04:33:16;;;;;;;19.13;9.10;;;;;;;7.89;91.92;99495.56;6278988;28;20254;-74
2022/09/28 04:36:38;;;;;;;18.97;8.90;;;;;;;8.03;92.07;99499.59;6271795;28;20227;-74
2022/09/28 04:39:59;;;;;;;12.27;9.73;;;;;;;7.92;92.10;99505.16;6280077;28;20318;-74
2022/09/28 04:43:20;;;;;;;13.57;8.47;;;;;;;8.13;91.95;99497.66;6280534;28;20576;-73
2022/09/28 04:46:41;;;;;;;17.43;7.83;;;;;;;8.20;92.12;99500.56;6278219;28;20239;-74
2022/09/28 04:50:42;;;;;;;13.27;8.07;;;;;;;8.21;90.78;99495.03;6200756;28;20241;-75
2022/09/28 04:54:12;;;;;;;13.20;7.43;;;;;;;8.24;90.86;99494.69;6223122;28;20226;-74
2022/09/28 04:57:34;;;;;;;12.13;7.93;;;;;;;8.06;91.36;99494.75;6274605;28;20524;-74
2022/09/28 05:00:58;;;;;;;13.00;7.33;;;;;;;7.64;92.61;99498.16;6243325;28;20223;-73
2022/09/28 05:04:42;;;;;;;11.73;7.77;;;;;;;7.82;92.77;99493.66;6257705;28;20604;-73
2022/09/28 05:08:22;;;;;;;14.67;8.13;;;;;;;7.72;92.93;99507.13;6269457;28;20230;-74
2022/09/28 05:11:44;;;;;;;16.97;9.83;;;;;;;7.81;92.40;99500.00;6267441;28;20231;-74
2022/09/28 05:15:11;;;;;;;17.23;10.83;;;;;;;7.91;92.53;99504.31;6257214;28;20236;-72
2022/09/28 05:18:32;;;;;;;16.13;9.80;;;;;;;7.78;92.70;99500.34;6278664;28;20234;-76
2022/09/28 05:21:59;;;;;;;16.40;8.17;;;;;;;7.59;93.11;99504.00;6275048;28;20310;-74
2022/09/28 05:25:20;;;;;;;17.00;8.90;;;;;;;7.62;93.81;99500.16;6290652;28;20231;-73
2022/09/28 05:28:56;;;;;;;13.93;8.93;;;;;;;7.90;92.98;99496.44;6280903;28;20242;-74
2022/09/28 05:32:35;;;;;;;12.77;8.60;;;;;;;8.28;92.09;99489.91;6257111;28;20235;-73
2022/09/28 05:36:12;;;;;;;12.67;8.63;;;;;;;8.32;91.52;99496.66;6275071;28;20344;-74
2022/09/28 05:39:32;;;;;;;13.07;7.43;;;;;;;8.32;91.00;99492.16;6274666;28;20223;-74
2022/09/28 05:42:58;;;;;;;11.80;7.77;;;;;;;8.41;90.73;99484.97;6262461;28;20230;-74
2022/09/28 05:46:22;;;;;;;10.03;6.97;;;;;;;8.35;90.27;99490.97;6254541;28;20246;-74
2022/09/28 05:49:43;;;;;;;10.43;6.03;;;;;;;8.13;90.96;99492.28;6263829;28;20262;-74
2022/09/28 05:53:07;;;;;;;10.30;6.53;;;;;;;8.20;90.57;99501.38;6264316;28;20239;-73
2022/09/28 05:56:30;;;;;;;10.57;7.70;;;;;;;8.37;89.99;99495.19;6250153;28;20235;-74
2022/09/28 05:59:51;;;;;;;9.03;6.07;;;;;;;8.29;90.24;99495.13;6251774;28;20231;-73
2022/09/28 06:03:14;;;;;;;10.97;9.20;;;;;;;7.93;91.76;99502.31;6253755;28;21718;-74
2022/09/28 06:06:37;;;;;;;13.57;8.57;;;;;;;7.80;91.79;99498.34;6252021;28;20235;-74
2022/09/28 06:09:57;;;;;;;11.73;8.97;;;;;;;7.99;91.84;99499.03;6269591;28;20610;-73
2022/09/28 06:13:33;;;;;;;12.63;7.37;;;;;;;8.12;91.25;99503.16;6287215;28;20354;-73
2022/09/28 06:16:54;;;;;;;9.80;6.90;;;;;;;8.21;90.04;99502.22;6274664;28;20507;-74
2022/09/28 06:20:18;;;;;;;11.67;7.27;;;;;;;8.34;88.92;99505.41;6276096;28;20607;-73
2022/09/28 06:23:50;;;;;;;10.10;6.97;;;;;;;8.28;89.16;99509.53;6285331;28;20227;-73
2022/09/28 06:27:12;;;;;;;8.37;6.00;;;;;;;8.26;89.91;99508.03;6278202;28;20218;-74
2022/09/28 06:30:36;;;;;;;11.40;6.73;;;;;;;8.45;89.49;99507.84;6291518;28;20243;-74
2022/09/28 06:33:59;;;;;;;9.73;7.00;;;;;;;8.61;88.15;99510.66;6273365;28;20226;-73
2022/09/28 06:37:24;;;;;;;14.20;8.53;;;;;;;8.58;88.31;99514.47;6278866;28;20330;-72
2022/09/28 06:40:45;;;;;;;10.70;7.47;;;;;;;8.13;89.32;99527.19;6284797;28;20230;-73
2022/09/28 06:44:06;;;;;;;9.37;7.50;;;;;;;8.51;88.16;99521.47;6283421;28;20505;-73
2022/09/28 06:47:58;;;;;;;9.20;6.83;;;;;;;8.65;87.28;99523.59;6270534;28;20246;-73
2022/09/28 06:51:25;;;;;;;9.47;7.07;;;;;;;8.59;87.83;99529.63;6284130;28;20230;-73
2022/09/28 06:55:02;;;;;;;10.77;7.03;;;;;;;8.66;87.25;99529.81;6281324;28;20227;-74
2022/09/28 06:58:32;;;;;;;13.93;6.00;;;;;;;8.58;86.86;99530.59;6290254;28;20635;-74
2022/09/28 07:01:54;;;;;;;10.93;8.03;;;;;;;8.77;86.27;99534.94;6293561;28;20227;-74
2022/09/28 07:05:42;;;;;;;13.27;8.47;;;;;;;8.62;87.15;99531.13;6279817;28;20227;-74
2022/09/28 07:09:21;;;;;;;9.70;7.77;;;;;;;8.50;86.92;99540.44;6284453;28;20234;-72
2022/09/28 07:13:06;;;;;;;12.07;6.73;;;;;;;8.41;87.10;99547.56;6282717;28;20239;-73
2022/09/28 07:16:33;;;;;;;11.67;6.80;;;;;;;8.19;87.66;99553.41;6293006;28;20318;-73
2022/09/28 07:19:57;;;;;;;12.07;8.83;;;;;;;8.20;88.43;99546.19;6281002;28;20335;-73
2022/09/28 07:23:18;;;;;;;9.93;7.37;;;;;;;7.97;88.73;99551.16;6287108;28;20314;-74
2022/09/28 07:26:58;;;;;;;11.33;7.03;;;;;;;8.49;87.12;99546.81;6284881;28;20239;-72
2022/09/28 07:30:44;;;;;;;11.10;8.33;;;;;;;8.93;86.49;99553.84;6286117;28;20223;-74
2022/09/28 07:34:12;;;;;;;13.27;10.10;;;;;;;9.20;86.86;99552.84;6288068;28;20318;-72
2022/09/28 07:37:49;;;;;;;15.90;9.03;;;;;;;9.06;84.85;99562.31;6288678;28;20227;-73
2022/09/28 07:41:15;;;;;;;11.80;7.83;;;;;;;8.51;86.46;99564.44;6284611;28;20227;-73
2022/09/28 07:44:42;;;;;;;15.63;9.43;;;;;;;8.62;85.17;99566.88;6281294;28;20238;-73
2022/09/28 07:48:04;;;;;;;13.73;8.10;;;;;;;8.66;86.71;99559.34;6282790;28;20278;-73
2022/09/28 07:51:44;;;;;;;17.90;8.20;;;;;;;9.12;85.29;99569.75;6275800;28;20692;-73
2022/09/28 07:55:23;;;;;;;14.00;9.80;;;;;;;9.10;85.97;99576.28;6288535;28;20220;-73
2022/09/28 07:59:05;;;;;;;14.00;8.17;;;;;;;8.63;86.24;99576.66;6289204;28;20231;-72
2022/09/28 08:02:45;;;;;;;12.70;7.53;;;;;;;8.66;85.79;99572.78;6273907;28;20232;-73
2022/09/28 08:06:14;;;;;;;9.40;7.53;;;;;;;8.77;85.55;99570.72;6282830;28;20232;-73
2022/09/28 08:09:35;;;;;;;15.03;8.47;;;;;;;8.97;84.29;99578.56;6289972;28;20314;-73
2022/09/28 08:13:15;;;;;;;14.53;7.97;;;;;;;8.44;87.07;99584.88;6287457;28;20236;-73
2022/09/28 08:16:56;;;;;;;10.13;7.60;;;;;;;8.93;85.54;99590.66;6265091;28;20239;-74
2022/09/28 08:24:16;;;;;;;16.03;9.80;;;;;;;9.58;83.63;99588.16;6248085;28;20911;-74
2022/09/28 08:27:38;;;;;;;15.40;12.80;;;;;;;9.73;82.33;99587.53;6286005;28;21051;-74
2022/09/28 08:31:01;;;;;;;15.63;9.17;;;;;;;9.63;82.72;99596.59;6283182;28;20558;-73
2022/09/28 08:34:26;;;;;;;13.70;10.53;;;;;;;9.81;82.53;99601.00;6290302;28;20337;-73
2022/09/28 08:38:05;;;;;;;14.87;10.33;;;;;;;9.89;81.33;99595.69;6284372;28;20227;-73
2022/09/28 08:41:52;;;;;;;10.43;8.40;;;;;;;9.95;81.49;99585.06;6282337;28;20250;-75
2022/09/28 08:45:34;;;;;;;16.70;9.53;;;;;;;9.85;81.57;99594.28;6271785;28;20239;-73
2022/09/28 08:49:06;;;;;;;16.40;11.03;;;;;;;9.95;80.99;99601.22;6283645;28;20697;-73
2022/09/28 08:52:59;;;;;;;17.13;11.20;;;;;;;10.00;81.58;99603.44;6287279;28;20227;-73
2022/09/28 08:56:43;;;;;;;14.90;11.00;;;;;;;9.87;81.66;99603.06;6283728;28;20279;-73
2022/09/28 09:00:09;;;;;;;13.30;8.90;;;;;;;9.52;81.63;99610.31;6285889;28;21751;-74
2022/09/28 09:03:35;;;;;;;11.83;8.53;;;;;;;10.36;79.98;99607.59;6281536;28;20234;-73
2022/09/28 09:07:50;;;;;;;13.13;7.27;;;;;;;10.80;77.51;99611.69;6272148;28;20223;-74
2022/09/28 09:11:26;;;;;;;12.60;8.13;;;;;;;11.05;77.61;99610.66;6277570;28;20235;-73
2022/09/28 09:15:13;;;;;;;17.33;11.07;;;;;;;11.06;76.96;99611.47;6275576;28;20744;-74
2022/09/28 09:18:37;;;;;;;20.17;13.40;;;;;;;11.40;76.08;99616.66;6276489;28;20322;-72
2022/09/28 09:22:29;;;;;;;14.23;10.57;;;;;;;10.82;77.20;99612.38;6271677;28;20641;-73
2022/09/28 09:25:54;;;;;;;13.27;9.47;;;;;;;10.97;77.23;99618.75;6271393;28;20230;-72
2022/09/28 09:29:32;;;;;;;16.23;9.87;;;;;;;10.32;78.69;99619.72;6285470;28;20326;-73
2022/09/28 09:33:12;;;;;;;15.93;9.20;;;;;;;10.53;78.44;99622.78;6292084;28;20235;-73
2022/09/28 09:37:09;;;;;;;14.80;9.83;;;;;;;10.22;78.99;99624.41;6276793;28;20219;-74
2022/09/28 09:40:48;;;;;;;15.67;9.50;;;;;;;9.89;80.55;99625.28;6289498;28;20238;-73
2022/09/28 09:45:17;;;;;;;14.00;9.60;;;;;;;10.41;78.54;99624.09;6286541;28;20235;-73
2022/09/28 09:49:01;;;;;;;16.70;10.00;;;;;;;9.61;81.15;99627.34;6281197;28;20323;-73
2022/09/28 09:52:26;;;;;;;13.67;8.67;;;;;;;10.20;80.23;99629.13;6290046;28;20502;-73
2022/09/28 09:55:56;;;;;;;15.10;9.17;;;;;;;10.67;78.18;99634.75;6285134;28;20511;-74
2022/09/28 09:59:26;;;;;;;10.93;7.60;;;;;;;10.37;78.37;99630.81;6281648;28;20317;-74
2022/09/28 10:03:21;;;;;;;12.73;7.70;;;;;;;11.95;74.03;99631.03;6283489;28;20231;-73
2022/09/28 10:06:45;;;;;;;10.73;8.03;;;;;;;12.02;72.79;99632.84;6292168;28;20539;-73
2022/09/28 10:10:13;;;;;;;10.13;7.77;;;;;;;12.73;68.95;99627.16;6285456;28;20235;-73
2022/09/28 10:13:41;;;;;;;11.43;6.10;;;;;;;13.05;66.73;99622.56;6284492;28;20338;-74
2022/09/28 10:17:26;;;;;;;10.13;5.90;;;;;;;11.82;69.77;99628.03;6283434;28;20227;-73
2022/09/28 10:21:25;;;;;;;9.90;5.70;;;;;;;15.35;60.89;99618.94;6234401;28;20663;-75
2022/09/28 10:24:56;;;;;;;7.03;5.28;;;;;;;15.73;57.06;99622.97;6231551;28;20249;-73
2022/09/28 10:28:23;;;;;;;7.90;5.40;;;;;;;18.84;48.62;99615.25;6284506;28;20250;-73
2022/09/28 10:31:47;;;;;;;5.63;4.90;;;;;;;22.62;38.79;99615.66;6266775;28;20555;-73
2022/09/28 10:35:42;;;;;;;6.30;5.10;;;;;;;23.30;37.88;99610.88;6277477;28;20243;-72
2022/09/28 10:39:05;;;;;;;7.70;4.55;;;;;;;25.02;33.71;99601.16;6289015;28;20226;-73
2022/09/28 10:42:31;;;;;;;6.28;5.65;;;;;;;26.69;32.04;99600.34;6286350;28;20227;-73
2022/09/28 10:46:01;;;;;;;9.90;7.03;;;;;;;26.02;31.24;99603.06;6284720;28;20222;-73
2022/09/28 10:49:23;;;;;;;7.55;5.20;;;;;;;24.14;33.94;99604.22;6282356;28;20635;-73
2022/09/28 10:52:49;;;;;;;6.43;4.88;;;;;;;27.01;30.17;99601.00;6279469;28;20238;-74
2022/09/28 10:56:36;;;;;;;4.70;3.95;;;;;;;28.78;27.27;99596.84;6279520;28;20597;-72
2022/09/28 11:00:05;;;;;;;5.50;4.32;;;;;;;28.71;27.93;99596.31;6292887;28;20261;-73
2022/09/28 11:03:51;;;;;;;4.88;4.20;;;;;;;28.90;27.30;99591.78;6291319;28;20833;-72
2022/09/28 11:07:17;;;;;;;4.82;4.00;;;;;;;27.49;28.60;99592.22;6281133;28;20222;-73
2022/09/28 11:10:39;;;;;;;4.53;4.07;;;;;;;24.55;31.69;99602.84;6282514;28;20231;-73
2022/09/28 11:14:26;;;;;;;5.03;4.47;;;;;;;24.20;34.18;99596.88;6277365;28;20464;-73
2022/09/28 11:17:49;;;;;;;4.60;3.97;;;;;;;21.23;39.65;99604.78;6289647;28;20314;-74
2022/09/28 11:21:16;;;;;;;5.45;3.90;;;;;;;23.18;35.19;99599.09;6281144;28;20467;-74
2022/09/28 11:25:19;;;;;;;6.25;4.35;;;;;;;25.05;32.79;99597.88;6281149;28;20223;-73
2022/09/28 11:28:41;;;;;;;6.20;4.90;;;;;;;20.26;40.94;99607.84;6285821;28;20512;-73
2022/09/28 11:32:10;;;;;;;5.50;4.45;;;;;;;19.80;43.41;99611.09;6286216;28;20620;-73
2022/09/28 11:35:54;;;;;;;7.80;4.13;;;;;;;22.50;37.68;99601.09;6282999;28;20617;-73
2022/09/28 11:39:25;;;;;;;4.60;4.07;;;;;;;22.46;37.68;99603.50;6300983;28;20223;-73
2022/09/28 11:42:59;;;;;;;3.85;3.50;;;;;;;18.89;43.36;99612.69;6298860;28;20242;-74
2022/09/28 11:46:31;;;;;;;6.45;3.60;;;;;;;17.42;48.20;99617.19;6293757;28;20234;-73
2022/09/28 11:50:05;;;;;;;3.22;2.72;;;;;;;17.68;47.29;99610.91;6238303;28;20241;-74
2022/09/28 11:53:34;;;;;;;3.55;2.63;;;;;;;17.60;46.51;99611.13;6276394;28;20230;-74
2022/09/28 11:56:59;;;;;;;6.25;2.97;;;;;;;21.71;38.50;99610.06;6301251;28;20226;-73
2022/09/28 12:00:22;;;;;;;3.25;2.20;;;;;;;23.07;34.42;99597.28;6278899;28;20223;-74
2022/09/28 12:03:52;;;;;;;2.65;1.60;;;;;;;25.06;32.20;99606.97;6284466;28;20223;-73
2022/09/28 12:07:17;;;;;;;2.85;2.10;;;;;;;24.42;32.37;99603.22;6245669;28;20723;-74
2022/09/28 12:10:46;;;;;;;2.95;2.15;;;;;;;19.71;40.88;99612.47;6279703;28;20318;-74
2022/09/28 12:14:20;;;;;;;3.35;1.65;;;;;;;24.85;33.18;99608.69;6293314;28;20624;-73
2022/09/28 12:17:45;;;;;;;1.75;1.65;;;;;;;24.22;31.29;99612.03;6273181;28;20235;-74
2022/09/28 12:21:22;;;;;;;1.27;1.13;;;;;;;26.47;29.28;99606.06;6285588;28;20230;-74
2022/09/28 12:24:46;;;;;;;2.60;1.45;;;;;;;24.86;31.13;99615.06;6282041;28;20244;-73
2022/09/28 12:28:29;;;;;;;1.42;1.33;;;;;;;25.74;29.77;99611.72;6289294;28;20227;-74
2022/09/28 12:31:58;;;;;;;1.65;1.55;;;;;;;26.69;28.32;99597.56;6284888;28;20243;-74
2022/09/28 12:35:29;;;;;;;1.63;1.15;;;;;;;27.02;28.49;99604.59;6283426;28;20239;-73
2022/09/28 12:39:03;;;;;;;1.13;1.02;;;;;;;27.47;27.18;99601.91;6287685;28;20226;-73
2022/09/28 12:42:40;;;;;;;1.33;1.13;;;;;;;29.57;24.08;99606.84;6282279;28;20226;-73
2022/09/28 12:46:24;;;;;;;2.10;1.83;;;;;;;29.40;24.70;99612.81;6284467;28;20310;-74
2022/09/28 12:50:02;;;;;;;2.08;1.33;;;;;;;29.64;24.96;99610.97;6280032;28;20246;-74
2022/09/28 12:53:40;;;;;;;0.85;0.85;;;;;;;29.16;24.31;99611.91;6286243;28;20223;-74
2022/09/28 12:57:15;;;;;;;1.25;1.00;;;;;;;27.46;26.03;99608.53;6289269;28;20222;-74
2022/09/28 13:00:49;;;;;;;2.25;1.48;;;;;;;28.10;25.88;99606.00;6284727;28;20256;-74
2022/09/28 13:04:28;;;;;;;2.40;1.17;;;;;;;25.79;29.34;99615.34;6286219;28;20504;-74
2022/09/28 13:07:57;;;;;;;1.38;1.27;;;;;;;24.30;31.52;99614.34;6282522;28;20242;-75
2022/09/28 13:11:30;;;;;;;1.50;0.95;;;;;;;27.90;27.71;99612.38;6290879;28;20242;-75
2022/09/28 13:15:17;;;;;;;1.25;1.15;;;;;;;25.86;29.95;99617.88;6261887;28;20254;-74
2022/09/28 13:18:44;;;;;;;1.75;1.17;;;;;;;24.43;31.85;99618.63;6270910;28;20223;-74
2022/09/28 13:22:29;;;;;;;2.08;1.10;;;;;;;26.32;30.04;99614.31;6280978;28;20246;-75
2022/09/28 13:25:56;;;;;;;0.75;0.75;;;;;;;27.22;27.51;99615.69;6284309;28;20223;-74
2022/09/28 13:29:19;;;;;;;1.20;1.10;;;;;;;26.68;28.52;99612.53;6295026;28;20461;-75
2022/09/28 13:32:42;;;;;;;0.73;0.68;;;;;;;27.61;26.82;99614.91;6286087;28;20231;-75
2022/09/28 13:36:24;;;;;;;4.05;1.05;;;;;;;24.02;31.34;99619.16;6282622;28;20266;-72
2022/09/28 13:39:51;;;;;;;1.92;1.33;;;;;;;26.02;29.46;99619.63;6282951;28;20222;-74
2022/09/28 13:43:28;;;;;;;2.38;1.30;;;;;;;27.03;27.48;99618.16;6282547;28;20588;-74
2022/09/28 13:47:12;;;;;;;0.65;0.60;;;;;;;27.80;25.81;99609.63;6283146;28;20303;-73
2022/09/28 13:50:45;;;;;;;0.68;0.68;;;;;;;29.08;25.08;99613.28;6279478;28;20259;-74
2022/09/28 13:54:28;;;;;;;0.75;0.38;;;;;;;28.46;24.44;99615.81;6282735;28;20231;-75
2022/09/28 13:57:56;;;;;;;0.68;0.65;;;;;;;27.87;25.69;99607.38;6297857;28;20231;-73
2022/09/28 14:01:20;;;;;;;1.92;1.00;;;;;;;28.18;26.39;99611.75;6278866;28;20238;-75
2022/09/28 14:04:54;;;;;;;3.45;1.20;;;;;;;23.73;30.71;99616.56;6281038;28;20231;-74
2022/09/28 14:08:37;;;;;;;2.00;1.30;;;;;;;24.38;30.67;99618.59;6272502;28;20246;-76
2022/09/28 14:12:00;;;;;;;0.88;0.88;;;;;;;24.60;30.02;99614.72;6281671;28;20239;-75
2022/09/28 14:15:50;;;;;;;2.45;0.77;;;;;;;21.69;34.45;99614.97;6281601;28;20229;-74
2022/09/28 14:19:18;;;;;;;0.45;0.45;;;;;;;24.24;30.40;99615.38;6270781;28;20247;-73
2022/09/28 14:22:59;;;;;;;0.80;0.60;;;;;;;23.88;30.60;99621.47;6279433;28;20230;-75
2022/09/28 14:27:07;;;;;;;1.40;0.55;;;;;;;24.27;29.95;99619.56;6280472;28;20231;-74
2022/09/28 14:30:45;;;;;;;0.60;0.50;;;;;;;24.13;29.28;99618.25;6228967;28;20364;-74
2022/09/28 14:34:25;;;;;;;0.75;0.70;;;;;;;23.79;30.33;99623.81;6230644;28;20258;-74
2022/09/28 14:41:43;;;;;;;0.65;0.57;;;;;;;22.38;33.52;99634.13;6235710;28;20281;-74
2022/09/28 14:45:34;;;;;;;0.65;0.40;;;;;;;21.68;34.81;99629.72;6277555;28;20604;-73
2022/09/28 14:48:57;;;;;;;0.40;0.35;;;;;;;19.84;36.65;99639.66;6283717;28;20231;-74
2022/09/28 14:52:36;;;;;;;3.05;0.55;;;;;;;20.26;36.90;99640.69;6283236;28;20315;-75
2022/09/28 14:55:59;;;;;;;1.70;0.52;;;;;;;19.85;39.22;99633.97;6278184;28;20231;-75
2022/09/28 14:59:23;;;;;;;0.80;0.68;;;;;;;19.32;39.91;99637.38;6282070;28;20733;-74
2022/09/28 15:02:51;;;;;;;2.05;0.63;;;;;;;19.17;41.50;99643.16;6277694;28;20235;-73
2022/09/28 15:06:14;;;;;;;1.08;0.88;;;;;;;19.04;42.30;99640.56;6287666;28;20608;-74
2022/09/28 15:09:38;;;;;;;1.35;1.25;;;;;;;18.92;44.45;99647.78;6288083;28;20235;-73
2022/09/28 15:13:01;;;;;;;1.77;1.10;;;;;;;18.64;43.44;99642.69;6282075;28;20234;-72
2022/09/28 15:16:24;;;;;;;4.88;1.15;;;;;;;17.63;45.62;99654.31;6276559;28;20318;-72
2022/09/28 15:19:53;;;;;;;1.20;1.10;;;;;;;17.68;45.36;99649.06;6276432;28;20223;-72
2022/09/28 15:23:25;;;;;;;1.52;0.90;;;;;;;17.82;46.07;99652.59;6283927;28;20227;-73
2022/09/28 15:26:48;;;;;;;2.15;1.17;;;;;;;18.10;46.04;99647.72;6277468;28;20231;-73
2022/09/28 15:30:23;;;;;;;1.10;0.93;;;;;;;17.63;46.67;99651.56;6283506;28;20219;-72
2022/09/28 15:37:25;;;;;;;0.57;0.57;;;;;;;17.25;46.15;99659.53;6282648;28;20238;-73
2022/09/28 15:40:46;;;;;;;0.43;0.43;;;;;;;17.60;45.31;99664.78;6277470;28;20232;-72
2022/09/28 15:44:29;;;;;;;0.70;0.68;;;;;;;17.46;46.38;99669.38;6273055;28;20223;-73
2022/09/28 15:47:57;;;;;;;0.73;0.73;;;;;;;17.35;46.22;99673.59;6285434;28;20227;-71
2022/09/28 15:51:20;;;;;;;1.75;0.70;;;;;;;16.11;49.89;99670.47;6267033;28;20727;-75
2022/09/28 15:54:42;;;;;;;1.10;1.00;;;;;;;16.48;49.72;99674.63;6275150;28;20700;-71
2022/09/28 15:58:16;;;;;;;2.30;1.25;;;;;;;16.02;51.21;99686.09;6273191;28;20235;-73
2022/09/28 16:01:39;;;;;;;2.22;2.00;;;;;;;15.14;53.21;99685.78;6273646;28;20227;-73
2022/09/28 16:05:01;;;;;;;1.45;0.90;;;;;;;15.56;51.99;99682.22;6277597;28;20227;-72
2022/09/28 16:08:27;;;;;;;0.50;0.50;;;;;;;15.21;52.96;99683.16;6265361;28;20223;-72
2022/09/28 16:11:51;;;;;;;2.65;1.27;;;;;;;15.32;53.20;99689.94;6260515;28;20305;-71
2022/09/28 16:15:19;;;;;;;1.47;1.37;;;;;;;15.14;53.90;99690.41;6269864;28;20234;-74
2022/09/28 16:18:48;;;;;;;2.50;1.20;;;;;;;15.23;53.93;99695.50;6276752;28;20334;-76
2022/09/28 16:22:20;;;;;;;2.47;1.43;;;;;;;15.06;55.51;99696.78;6273084;28;20223;-72
2022/09/28 16:25:50;;;;;;;1.30;1.00;;;;;;;14.72;56.64;99702.06;6279340;28;20226;-75
2022/09/28 16:29:26;;;;;;;1.67;1.23;;;;;;;14.74;57.28;99705.44;6279889;28;20886;-76
2022/09/28 16:32:53;;;;;;;2.27;1.80;;;;;;;14.79;56.79;99702.97;6274156;28;20235;-74
2022/09/28 16:36:17;;;;;;;1.53;1.40;;;;;;;14.70;57.40;99706.00;6276802;28;20234;-72
2022/09/28 16:39:38;;;;;;;1.53;1.43;;;;;;;14.37;57.83;99706.44;6282444;28;20278;-73
2022/09/28 16:43:02;;;;;;;3.67;2.37;;;;;;;14.41;58.33;99705.03;6280350;28;20231;-74